Time;durP1;ratioP1;P1;durP2;ratioP2;P2;SDS_P1;SDS_P2;PMS_P1;PMS_P2;Temp;Humidity;BMP_temperature;BMP_pressure;BME280_temperature;BME280_humidity;BME280_pressure;Samples;Min_cycle;Max_cycle;Signal;HPM_P1;HPM_P2
2020/12/03 00:01:33;;;;;;;;;;;;;;;4.21;100.00;98075.91;5085327;27;19973;-88
2020/12/03 00:04:04;;;;;;;;;;;;;;;4.27;100.00;98074.28;5102178;27;19923;-88
2020/12/03 00:06:38;;;;;;;;;;;;;;;4.19;100.00;98061.69;5102889;27;20374;-88
2020/12/03 00:09:10;;;;;;;;;;;;;;;4.29;100.00;98050.56;5085907;27;19980;-87
2020/12/03 00:11:38;;;;;;;;;;;;;;;4.28;100.00;98048.19;5137263;27;20008;-88
2020/12/03 00:14:05;;;;;;;;;;;;;;;4.27;100.00;98047.41;5118386;27;20285;-87
2020/12/03 00:16:33;;;;;;;;;;;;;;;4.32;100.00;98044.22;5102118;27;19946;-87
2020/12/03 00:19:01;;;;;;;;;;;;;;;4.27;100.00;98041.09;5085311;27;19947;-88
2020/12/03 00:21:31;;;;;;;;;;;;;;;4.17;100.00;98026.16;5118971;27;20393;-88
2020/12/03 00:23:58;;;;;;;;;;;;;;;4.15;100.00;98013.94;5085279;27;19969;-87
2020/12/03 00:26:25;;;;;;;;;;;;;;;4.19;100.00;98001.66;5084826;27;19955;-87
2020/12/03 00:28:52;;;;;;;;;;;;;;;4.19;100.00;97996.13;5084517;27;20365;-88
2020/12/03 00:31:19;;;;;;;;;;;;;;;4.24;100.00;97992.13;5084552;27;19927;-88
2020/12/03 00:33:46;;;;;;;;;;;;;;;4.30;100.00;97998.81;5068365;27;20340;-88
2020/12/03 00:36:13;;;;;;;;;;;;;;;4.29;100.00;97983.38;5101401;27;19923;-86
2020/12/03 00:38:42;;;;;;;;;;;;;;;4.27;100.00;97975.50;5085142;27;20370;-88
2020/12/03 00:41:08;;;;;;;;;;;;;;;4.30;100.00;97958.09;5084622;27;19966;-88
2020/12/03 00:43:35;;;;;;;;;;;;;;;4.38;100.00;97967.09;5084935;27;20290;-88
2020/12/03 00:46:02;;;;;;;;;;;;;;;4.35;100.00;97957.66;5084247;27;19931;-88
2020/12/03 00:48:31;;;;;;;;;;;;;;;4.37;100.00;97952.53;5085232;27;20306;-88
2020/12/03 00:50:59;;;;;;;;;;;;;;;4.41;100.00;97953.25;5084503;27;19927;-88
2020/12/03 00:53:26;;;;;;;;;;;;;;;4.32;100.00;97958.47;5084702;27;19930;-88
2020/12/03 00:55:54;;;;;;;;;;;;;;;4.38;100.00;97956.84;5084267;27;20446;-87
2020/12/03 00:58:21;;;;;;;;;;;;;;;4.46;100.00;97944.53;5084715;27;19924;-88
2020/12/03 01:00:48;;;;;;;;;;;;;;;4.38;100.00;97928.41;5084251;27;19923;-87
2020/12/03 01:03:14;;;;;;;;;;;;;;;4.43;100.00;97916.91;5084060;27;19930;-87
2020/12/03 01:05:42;;;;;;;;;;;;;;;4.45;100.00;97915.31;5101226;27;19930;-87
2020/12/03 01:08:08;;;;;;;;;;;;;;;4.50;100.00;97912.09;5100610;27;19923;-88
2020/12/03 01:10:35;;;;;;;;;;;;;;;4.52;100.00;97912.47;5117343;27;19924;-87
2020/12/03 01:13:03;;;;;;;;;;;;;;;4.52;100.00;97917.19;5083863;27;19924;-87
2020/12/03 01:15:30;;;;;;;;;;;;;;;4.51;100.00;97924.72;5083935;27;19969;-88
2020/12/03 01:17:57;;;;;;;;;;;;;;;4.58;100.00;97921.88;5117408;27;20386;-87
2020/12/03 01:20:26;;;;;;;;;;;;;;;4.54;100.00;97923.91;5100565;27;20393;-88
2020/12/03 01:22:53;;;;;;;;;;;;;;;4.51;100.00;97923.94;5117638;27;19931;-88
2020/12/03 01:25:21;;;;;;;;;;;;;;;4.53;100.00;97916.03;5104043;28;20374;-86
2020/12/03 01:27:48;;;;;;;;;;;;;;;4.52;100.00;97903.38;5110309;27;19970;-86
2020/12/03 01:30:16;;;;;;;;;;;;;;;4.55;100.00;97889.50;5109239;27;20386;-86
2020/12/03 01:32:44;;;;;;;;;;;;;;;4.50;100.00;97884.41;5092334;28;19930;-86
2020/12/03 01:35:12;;;;;;;;;;;;;;;4.54;100.00;97879.66;5109791;27;19923;-86
2020/12/03 01:37:39;;;;;;;;;;;;;;;4.46;100.00;97864.31;5110265;27;20416;-85
2020/12/03 01:40:14;;;;;;;;;;;;;;;4.48;100.00;97853.63;5089462;28;20386;-87
2020/12/03 01:42:41;;;;;;;;;;;;;;;4.51;100.00;97850.06;5099904;27;20019;-87
2020/12/03 01:45:27;;;;;;;;;;;;;;;4.54;100.00;97840.13;5117058;28;19924;-87
2020/12/03 01:47:53;;;;;;;;;;;;;;;4.54;100.00;97823.53;5099673;28;19945;-86
2020/12/03 01:50:20;;;;;;;;;;;;;;;4.48;100.00;97828.75;5082167;28;19949;-88
2020/12/03 01:52:48;;;;;;;;;;;;;;;4.48;100.00;97814.91;5116734;28;19931;-88
2020/12/03 01:55:14;;;;;;;;;;;;;;;4.50;100.00;97817.28;5083823;28;19924;-89
2020/12/03 01:57:44;;;;;;;;;;;;;;;4.38;100.00;97810.28;5083898;28;19923;-89
2020/12/03 02:00:15;;;;;;;;;;;;;;;4.34;100.00;97797.69;5083740;28;20427;-89
2020/12/03 02:02:44;;;;;;;;;;;;;;;4.29;100.00;97792.59;5100529;28;20020;-87
2020/12/03 02:05:13;;;;;;;;;;;;;;;4.22;100.00;97795.47;5099699;28;20741;-87
2020/12/03 02:07:42;;;;;;;;;;;;;;;4.30;100.00;97792.19;5100710;28;19968;-88
2020/12/03 02:10:10;;;;;;;;;;;;;;;4.26;100.00;97799.75;5083724;28;19927;-88
2020/12/03 02:12:37;;;;;;;;;;;;;;;4.24;100.00;97788.31;5100657;28;19934;-88
2020/12/03 02:15:05;;;;;;;;;;;;;;;4.30;100.00;97774.84;5100773;28;19923;-88
2020/12/03 02:17:32;;;;;;;;;;;;;;;4.24;100.00;97782.78;5100183;28;19927;-87
2020/12/03 02:20:00;;;;;;;;;;;;;;;4.30;100.00;97791.44;5100049;28;20445;-88
2020/12/03 02:22:26;;;;;;;;;;;;;;;4.23;100.00;97775.69;5082650;28;19923;-87
2020/12/03 02:24:53;;;;;;;;;;;;;;;4.28;100.00;97761.41;5083406;28;19927;-88
2020/12/03 02:27:21;;;;;;;;;;;;;;;4.29;100.00;97768.50;5100075;28;19930;-87
2020/12/03 02:29:49;;;;;;;;;;;;;;;4.37;100.00;97761.72;5117167;28;19927;-87
2020/12/03 02:32:16;;;;;;;;;;;;;;;4.30;100.00;97742.41;5100097;28;19931;-87
2020/12/03 02:34:44;;;;;;;;;;;;;;;4.32;100.00;97742.81;5083025;28;19930;-87
2020/12/03 02:37:11;;;;;;;;;;;;;;;4.33;100.00;97730.53;5134387;27;19931;-87
2020/12/03 02:39:38;;;;;;;;;;;;;;;4.36;100.00;97724.16;5070599;27;20286;-87
2020/12/03 02:42:07;;;;;;;;;;;;;;;4.35;100.00;97722.63;5103649;27;19930;-87
2020/12/03 02:44:35;;;;;;;;;;;;;;;4.31;100.00;97710.81;5069877;27;19931;-87
2020/12/03 02:47:04;;;;;;;;;;;;;;;4.33;100.00;97713.94;5086635;27;19923;-87
2020/12/03 02:49:30;;;;;;;;;;;;;;;4.35;100.00;97708.78;5103623;27;20006;-87
2020/12/03 02:51:57;;;;;;;;;;;;;;;4.27;100.00;97679.66;5085773;27;20495;-88
2020/12/03 02:54:24;;;;;;;;;;;;;;;4.27;100.00;97678.88;5086167;27;19924;-87
2020/12/03 02:56:51;;;;;;;;;;;;;;;4.27;100.00;97671.38;5138728;27;19924;-88
2020/12/03 02:59:17;;;;;;;;;;;;;;;4.25;100.00;97661.91;5103806;27;19931;-87
2020/12/03 03:01:44;;;;;;;;;;;;;;;4.28;100.00;97650.03;5086518;27;19924;-87
2020/12/03 03:04:11;;;;;;;;;;;;;;;4.29;100.00;97655.16;5086109;27;19931;-86
2020/12/03 03:06:38;;;;;;;;;;;;;;;4.32;100.00;97665.38;5102397;27;20408;-86
2020/12/03 03:09:05;;;;;;;;;;;;;;;4.37;100.00;97653.84;5120816;27;19923;-86
2020/12/03 03:11:33;;;;;;;;;;;;;;;4.25;100.00;97651.66;5086413;27;20350;-86
2020/12/03 03:14:00;;;;;;;;;;;;;;;4.29;100.00;97651.59;5119516;27;20331;-86
2020/12/03 03:16:28;;;;;;;;;;;;;;;4.25;100.00;97640.59;5070009;27;19923;-87
2020/12/03 03:18:54;;;;;;;;;;;;;;;4.29;100.00;97635.00;5085475;27;19930;-87
2020/12/03 03:21:23;;;;;;;;;;;;;;;4.31;100.00;97610.50;5102299;27;19924;-87
2020/12/03 03:23:50;;;;;;;;;;;;;;;4.35;100.00;97606.47;5068846;27;19973;-86
2020/12/03 03:26:17;;;;;;;;;;;;;;;4.34;100.00;97604.91;5085581;27;20390;-86
2020/12/03 03:28:44;;;;;;;;;;;;;;;4.28;100.00;97603.81;5102651;27;20371;-86
2020/12/03 03:31:11;;;;;;;;;;;;;;;4.22;100.00;97599.97;5085246;27;19973;-86
2020/12/03 03:33:37;;;;;;;;;;;;;;;4.26;100.00;97603.44;5119501;27;19923;-86
2020/12/03 03:36:04;;;;;;;;;;;;;;;4.24;100.00;97594.78;5102208;27;19923;-86
2020/12/03 03:38:31;;;;;;;;;;;;;;;4.23;100.00;97581.38;5085431;27;19930;-85
2020/12/03 03:40:59;;;;;;;;;;;;;;;4.17;100.00;97586.59;5068789;27;20278;-86
2020/12/03 03:43:25;;;;;;;;;;;;;;;4.11;100.00;97584.72;5102035;27;19931;-86
2020/12/03 03:45:52;;;;;;;;;;;;;;;4.05;100.00;97573.34;5101787;27;19924;-86
2020/12/03 03:48:19;;;;;;;;;;;;;;;3.99;100.00;97566.72;5085100;27;19927;-86
2020/12/03 03:50:46;;;;;;;;;;;;;;;4.02;100.00;97568.66;5084832;27;19962;-86
2020/12/03 03:53:13;;;;;;;;;;;;;;;3.99;100.00;97555.66;5084989;27;19923;-86
2020/12/03 03:55:40;;;;;;;;;;;;;;;4.02;100.00;97556.81;5101623;27;20370;-86
2020/12/03 03:58:09;;;;;;;;;;;;;;;3.98;100.00;97564.38;5102214;27;19924;-87
2020/12/03 04:00:41;;;;;;;;;;;;;;;4.04;100.00;97557.97;5102550;27;20290;-86
2020/12/03 04:03:12;;;;;;;;;;;;;;;3.99;100.00;97555.66;5084744;27;19924;-86
2020/12/03 04:05:40;;;;;;;;;;;;;;;4.06;100.00;97561.09;5101187;27;19928;-86
2020/12/03 04:08:08;;;;;;;;;;;;;;;4.08;100.00;97555.13;5068178;27;19923;-86
2020/12/03 04:10:35;;;;;;;;;;;;;;;4.00;100.00;97546.16;5084809;27;19923;-86
2020/12/03 04:13:02;;;;;;;;;;;;;;;4.00;100.00;97537.88;5101586;27;19924;-85
2020/12/03 04:15:28;;;;;;;;;;;;;;;3.94;100.00;97536.78;5118482;27;20385;-86
2020/12/03 04:17:55;;;;;;;;;;;;;;;4.01;100.00;97524.84;5101364;27;20002;-86
2020/12/03 04:20:22;;;;;;;;;;;;;;;4.03;100.00;97523.22;5100965;27;19923;-87
2020/12/03 04:22:49;;;;;;;;;;;;;;;4.00;100.00;97515.78;5084733;27;20626;-86
2020/12/03 04:25:16;;;;;;;;;;;;;;;4.04;100.00;97508.22;5067788;27;20302;-86
2020/12/03 04:27:43;;;;;;;;;;;;;;;4.02;100.00;97499.56;5067916;27;20316;-86
2020/12/03 04:30:10;;;;;;;;;;;;;;;4.01;100.00;97502.75;5100910;27;19927;-86
2020/12/03 04:32:37;;;;;;;;;;;;;;;4.02;100.00;97510.63;5100912;27;19924;-86
2020/12/03 04:35:05;;;;;;;;;;;;;;;3.98;100.00;97496.09;5084005;27;19924;-86
2020/12/03 04:37:32;;;;;;;;;;;;;;;3.92;100.00;97492.22;5101281;27;19924;-86
2020/12/03 04:39:58;;;;;;;;;;;;;;;3.87;100.00;97487.16;5083954;27;19923;-86
2020/12/03 04:42:28;;;;;;;;;;;;;;;3.88;100.00;97472.13;5084182;27;20431;-86
2020/12/03 04:45:05;;;;;;;;;;;;;;;3.91;100.00;97470.53;5117581;27;19930;-87
2020/12/03 04:47:55;;;;;;;;;;;;;;;3.90;100.00;97466.97;5084258;27;19924;-86
2020/12/03 04:50:30;;;;;;;;;;;;;;;3.83;100.00;97450.53;5117866;27;19931;-87
2020/12/03 04:53:03;;;;;;;;;;;;;;;3.82;100.00;97450.94;5096929;28;19931;-86
2020/12/03 04:55:49;;;;;;;;;;;;;;;3.83;100.00;97442.25;5097781;28;19977;-87
2020/12/03 04:58:39;;;;;;;;;;;;;;;3.81;100.00;97450.16;5081039;28;19924;-86
2020/12/03 05:01:27;;;;;;;;;;;;;;;3.84;100.00;97443.78;5096920;28;19923;-86
2020/12/03 05:04:19;;;;;;;;;;;;;;;3.82;100.00;97428.84;5097336;28;19932;-86
2020/12/03 05:07:04;;;;;;;;;;;;;;;3.83;100.00;97441.44;5097346;28;20015;-86
2020/12/03 05:09:54;;;;;;;;;;;;;;;3.76;100.00;97431.28;5113793;28;20390;-87
2020/12/03 05:12:22;;;;;;;;;;;;;;;3.76;100.00;97411.94;5059197;28;19931;-86
2020/12/03 05:14:51;;;;;;;;;;;;;;;3.82;100.00;97407.50;5059006;28;20023;-86
2020/12/03 05:17:30;;;;;;;;;;;;;;;3.72;100.00;97398.19;5058716;28;19924;-86
2020/12/03 05:20:12;;;;;;;;;;;;;;;3.70;100.00;97388.75;5059082;28;19946;-86
2020/12/03 05:22:39;;;;;;;;;;;;;;;3.69;100.00;97387.19;5058901;28;19928;-86
2020/12/03 05:25:15;;;;;;;;;;;;;;;3.64;100.00;97385.69;5075821;28;20022;-86
2020/12/03 05:27:44;;;;;;;;;;;;;;;3.61;100.00;97385.72;5075434;28;19959;-86
2020/12/03 05:30:10;;;;;;;;;;;;;;;3.61;100.00;97388.50;5058645;28;19924;-86
2020/12/03 05:32:37;;;;;;;;;;;;;;;3.64;100.00;97384.91;5041960;28;19924;-86
2020/12/03 05:35:05;;;;;;;;;;;;;;;3.63;100.00;97384.09;5058469;28;19990;-86
2020/12/03 05:37:33;;;;;;;;;;;;;;;3.61;100.00;97380.22;5075325;28;20403;-86
2020/12/03 05:40:00;;;;;;;;;;;;;;;3.69;100.00;97381.69;5075365;28;19924;-86
2020/12/03 05:42:35;;;;;;;;;;;;;;;3.70;100.00;97372.97;5059229;28;19928;-86
2020/12/03 05:45:08;;;;;;;;;;;;;;;3.65;100.00;97367.13;5058385;28;19923;-86
2020/12/03 05:47:36;;;;;;;;;;;;;;;3.73;100.00;97354.78;5092033;28;20367;-86
2020/12/03 05:50:07;;;;;;;;;;;;;;;3.53;100.00;97351.94;5075421;28;19924;-86
2020/12/03 05:52:34;;;;;;;;;;;;;;;3.67;100.00;97353.69;5096078;28;19931;-86
2020/12/03 05:55:08;;;;;;;;;;;;;;;3.61;100.00;97342.34;5096424;28;20284;-86
2020/12/03 05:57:36;;;;;;;;;;;;;;;3.55;100.00;97332.97;5096790;28;20011;-85
2020/12/03 06:00:26;;;;;;;;;;;;;;;3.54;100.00;97330.63;5096281;28;19973;-85
2020/12/03 06:03:16;;;;;;;;;;;;;;;3.60;100.00;97331.72;5111685;28;19924;-86
2020/12/03 06:05:49;;;;;;;;;;;;;;;3.56;100.00;97317.16;5093338;28;19924;-86
2020/12/03 06:08:22;;;;;;;;;;;;;;;3.58;100.00;97317.53;5113551;28;20343;-85
2020/12/03 06:11:07;;;;;;;;;;;;;;;3.57;100.00;97316.75;5095974;28;20018;-86
2020/12/03 06:13:37;;;;;;;;;;;;;;;3.58;100.00;97310.03;5066597;28;19962;-86
2020/12/03 06:16:13;;;;;;;;;;;;;;;3.53;100.00;97309.72;5100602;28;20010;-86
2020/12/03 06:18:46;;;;;;;;;;;;;;;3.42;100.00;97298.09;5100498;28;19934;-87
2020/12/03 06:21:28;;;;;;;;;;;;;;;3.40;100.00;97292.19;5083508;28;19924;-86
2020/12/03 06:24:02;;;;;;;;;;;;;;;3.25;100.00;97282.56;5083371;28;19924;-86
2020/12/03 06:26:32;;;;;;;;;;;;;;;3.28;100.00;97287.25;5100737;28;19947;-86
2020/12/03 06:29:07;;;;;;;;;;;;;;;3.31;100.00;97283.66;5100221;28;19930;-86
2020/12/03 06:31:48;;;;;;;;;;;;;;;3.29;100.00;97275.00;5116912;28;20425;-85
2020/12/03 06:34:20;;;;;;;;;;;;;;;3.27;100.00;97269.91;5117335;28;20022;-85
2020/12/03 06:36:59;;;;;;;;;;;;;;;3.29;100.00;97269.47;5083279;28;19924;-85
2020/12/03 06:39:38;;;;;;;;;;;;;;;3.28;100.00;97262.41;5082966;28;19953;-86
2020/12/03 06:42:11;;;;;;;;;;;;;;;3.36;100.00;97253.59;5082485;28;19931;-85
2020/12/03 06:44:43;;;;;;;;;;;;;;;3.24;100.00;97250.66;5083383;28;19949;-85
2020/12/03 06:47:09;;;;;;;;;;;;;;;3.30;100.00;97243.47;5066242;28;19944;-86
2020/12/03 06:49:56;;;;;;;;;;;;;;;3.29;100.00;97237.16;5099836;28;19930;-86
2020/12/03 06:52:29;;;;;;;;;;;;;;;3.22;100.00;97233.72;5078933;28;20056;-86
2020/12/03 06:55:07;;;;;;;;;;;;;;;3.17;100.00;97235.00;5083241;28;19925;-86
2020/12/03 06:57:47;;;;;;;;;;;;;;;3.23;100.00;97230.56;5083266;28;19923;-88
2020/12/03 07:00:33;;;;;;;;;;;;;;;3.22;100.00;97230.97;5100016;28;19931;-90
2020/12/03 07:03:00;;;;;;;;;;;;;;;3.22;100.00;97230.97;5066751;28;19955;-90
2020/12/03 07:05:42;;;;;;;;;;;;;;;3.28;100.00;97237.56;5082982;28;19993;-88
2020/12/03 07:08:13;;;;;;;;;;;;;;;3.31;100.00;97239.50;5083305;28;20396;-88
2020/12/03 07:10:43;;;;;;;;;;;;;;;3.29;100.00;97230.84;5099560;28;20547;-88
2020/12/03 07:13:28;;;;;;;;;;;;;;;3.30;100.00;97224.16;5099546;28;19928;-88
2020/12/03 07:16:11;;;;;;;;;;;;;;;3.40;100.00;97220.41;5083133;28;20272;-88
2020/12/03 07:18:56;;;;;;;;;;;;;;;3.36;100.00;97211.41;5082421;28;20010;-88
2020/12/03 07:21:26;;;;;;;;;;;;;;;3.21;100.00;97216.38;5082585;28;19930;-88
2020/12/03 07:23:53;;;;;;;;;;;;;;;3.32;100.00;97207.91;5099019;28;20332;-88
2020/12/03 07:26:29;;;;;;;;;;;;;;;3.31;100.00;97211.91;5099786;28;19977;-87
2020/12/03 07:28:59;;;;;;;;;;;;;;;3.25;100.00;97208.06;5098972;28;19966;-88
2020/12/03 07:31:31;;;;;;;;;;;;;;;3.22;100.00;97203.38;5066238;28;19923;-88
2020/12/03 07:34:22;;;;;;;;;;;;;;;3.25;100.00;97192.28;5099298;28;19931;-88
2020/12/03 07:36:55;;;;;;;;;;;;;;;3.25;100.00;97181.25;5065551;28;19924;-88
2020/12/03 07:39:25;;;;;;;;;;;;;;;3.13;100.00;97186.56;5099665;28;19951;-88
2020/12/03 07:41:57;;;;;;;;;;;;;;;3.18;100.00;97180.59;5081729;28;19924;-88
2020/12/03 07:44:35;;;;;;;;;;;;;;;3.22;100.00;97173.81;5082628;28;20290;-88
2020/12/03 07:47:14;;;;;;;;;;;;;;;3.20;100.00;97176.19;5071149;28;20295;-87
2020/12/03 07:49:42;;;;;;;;;;;;;;;3.24;100.00;97168.63;5091378;28;19938;-88
2020/12/03 07:52:28;;;;;;;;;;;;;;;3.20;100.00;97161.59;5042750;28;19928;-88
2020/12/03 07:55:15;;;;;;;;;;;;;;;3.15;100.00;97168.38;5078581;28;20065;-89
2020/12/03 07:57:44;;;;;;;;;;;;;;;3.24;100.00;97156.81;5078700;28;20276;-88
2020/12/03 08:00:31;;;;;;;;;;;;;;;3.17;100.00;97148.66;5068709;28;19925;-89
2020/12/03 08:02:59;;;;;;;;;;;;;;;3.20;100.00;97156.09;5056104;28;19931;-88
2020/12/03 08:05:32;;;;;;;;;;;;;;;3.04;100.00;97142.97;5076038;28;19932;-88
2020/12/03 08:07:59;;;;;;;;;;;;;;;2.99;100.00;97129.66;5058446;28;19928;-89
2020/12/03 08:10:33;;;;;;;;;;;;;;;3.04;100.00;97136.66;5048178;28;20370;-89
2020/12/03 08:13:26;;;;;;;;;;;;;;;3.06;100.00;97128.75;5044876;28;19931;-88
2020/12/03 08:15:56;;;;;;;;;;;;;;;3.10;100.00;97123.94;5092917;28;19974;-88
2020/12/03 08:18:49;;;;;;;;;;;;;;;3.11;100.00;97122.75;5094756;28;20022;-88
2020/12/03 08:21:20;;;;;;;;;;;;;;;3.07;100.00;97124.78;5031252;28;20012;-88
2020/12/03 08:23:51;;;;;;;;;;;;;;;3.01;100.00;97120.94;5061185;28;19931;-88
2020/12/03 08:26:22;;;;;;;;;;;;;;;3.07;100.00;97119.28;5044895;28;19931;-82
2020/12/03 08:28:50;;;;;;;;;;;;;;;3.10;100.00;97116.47;5078222;28;19955;-88
2020/12/03 08:31:17;;;;;;;;;;;;;;;3.08;100.00;97110.56;5077806;28;20001;-89
2020/12/03 08:33:44;;;;;;;;;;;;;;;3.10;100.00;97110.94;5061318;28;19990;-88
2020/12/03 08:36:14;;;;;;;;;;;;;;;3.20;100.00;97106.41;5043903;28;19977;-87
2020/12/03 08:38:44;;;;;;;;;;;;;;;3.16;100.00;97105.72;5061158;28;20069;-88
2020/12/03 08:41:17;;;;;;;;;;;;;;;3.20;100.00;97106.41;5042813;28;20357;-88
2020/12/03 08:43:49;;;;;;;;;;;;;;;3.32;100.00;97103.03;5061134;28;19924;-86
2020/12/03 08:46:25;;;;;;;;;;;;;;;3.33;100.00;97091.56;5027829;28;20622;-88
2020/12/03 08:48:53;;;;;;;;;;;;;;;3.31;100.00;97095.97;5059174;28;19924;-89
2020/12/03 08:51:20;;;;;;;;;;;;;;;3.33;100.00;97088.06;5062838;28;19928;-88
2020/12/03 08:53:51;;;;;;;;;;;;;;;3.37;100.00;97086.00;5064423;28;19931;-88
2020/12/03 08:56:20;;;;;;;;;;;;;;;3.38;100.00;97084.78;5048452;28;19924;-89
2020/12/03 08:59:02;;;;;;;;;;;;;;;3.38;100.00;97068.22;5064442;28;19923;-88
2020/12/03 09:01:38;;;;;;;;;;;;;;;3.56;100.00;97076.94;5064344;28;19930;-88
2020/12/03 09:04:06;;;;;;;;;;;;;;;3.56;100.00;97079.69;5081176;28;19978;-88
2020/12/03 09:06:43;;;;;;;;;;;;;;;3.55;100.00;97067.09;5064464;28;20380;-90
2020/12/03 09:09:10;;;;;;;;;;;;;;;3.64;100.00;97064.53;5063350;28;19927;-85
2020/12/03 09:11:38;;;;;;;;;;;;;;;3.70;100.00;97069.16;5063526;28;19923;-77
2020/12/03 09:14:06;;;;;;;;;;;;;;;3.74;100.00;97071.84;5063455;28;20022;-78
2020/12/03 09:16:34;;;;;;;;;;;;;;;3.64;100.00;97053.50;5115423;28;19924;-82
2020/12/03 09:19:04;;;;;;;;;;;;;;;3.70;100.00;97054.56;5074778;28;19930;-78
2020/12/03 09:21:41;;;;;;;;;;;;;;;3.83;100.00;97049.97;5105790;28;19930;-79
2020/12/03 09:24:10;;;;;;;;;;;;;;;3.65;100.00;97038.47;5053118;28;19924;-76
2020/12/03 09:26:39;;;;;;;;;;;;;;;3.76;100.00;97043.81;5110375;28;19931;-76
2020/12/03 09:29:10;;;;;;;;;;;;;;;3.68;100.00;97037.66;5075250;28;20016;-77
2020/12/03 09:31:37;;;;;;;;;;;;;;;3.81;100.00;97035.00;5092405;28;19969;-77
2020/12/03 09:34:05;;;;;;;;;;;;;;;3.82;100.00;97020.75;5092831;28;20014;-83
2020/12/03 09:36:32;;;;;;;;;;;;;;;3.80;100.00;97020.44;5075388;28;20324;-81
2020/12/03 09:38:59;;;;;;;;;;;;;;;3.89;100.00;97015.09;5111418;28;19946;-80
2020/12/03 09:41:28;;;;;;;;;;;;;;;3.92;100.00;97003.19;5076742;28;20006;-81
2020/12/03 09:43:58;;;;;;;;;;;;;;;3.85;100.00;97003.31;5110570;28;20010;-77
2020/12/03 09:46:28;;;;;;;;;;;;;;;3.85;100.00;96992.28;5110100;28;19938;-76
2020/12/03 09:48:55;;;;;;;;;;;;;;;3.86;100.00;96982.00;5109872;28;19928;-77
2020/12/03 09:51:23;;;;;;;;;;;;;;;3.85;100.00;96981.22;5109909;28;19932;-76
2020/12/03 09:53:50;;;;;;;;;;;;;;;3.92;100.00;96975.56;5109780;28;20034;-76
2020/12/03 09:56:17;;;;;;;;;;;;;;;3.88;100.00;96974.09;5092601;28;19924;-76
2020/12/03 09:58:43;;;;;;;;;;;;;;;3.82;100.00;96959.22;5104154;28;19932;-75
2020/12/03 10:01:11;;;;;;;;;;;;;;;3.93;100.00;96954.22;5108915;28;20387;-75
2020/12/03 10:04:11;;;;;;;;;;;;;;;3.98;100.00;96945.44;5103890;28;19969;-75
2020/12/03 10:06:54;;;;;;;;;;;;;;;3.95;100.00;96936.03;5005086;28;19925;-75
2020/12/03 10:09:56;;;;;;;;;;;;;;;3.95;100.00;96924.19;5021910;28;20478;-75
2020/12/03 10:12:34;;;;;;;;;;;;;;;3.94;100.00;96923.41;4951091;28;19969;-75
2020/12/03 10:15:17;;;;;;;;;;;;;;;3.91;100.00;96909.69;4966057;28;19930;-76
2020/12/03 10:17:50;;;;;;;;;;;;;;;3.96;100.00;96903.63;4969415;28;19933;-76
2020/12/03 10:20:20;;;;;;;;;;;;;;;3.72;100.00;96900.25;4967322;28;19941;-76
2020/12/03 10:23:01;;;;;;;;;;;;;;;3.74;100.00;96895.09;4947925;28;20378;-77
2020/12/03 10:25:30;;;;;;;;;;;;;;;3.59;100.00;96877.28;4970094;28;19930;-76
2020/12/03 10:28:25;;;;;;;;;;;;;;;3.78;100.00;96881.19;4963397;28;19933;-86
2020/12/03 10:31:21;;;;;;;;;;;;;;;3.89;100.00;96871.44;4962205;28;19925;-85
2020/12/03 10:33:50;;;;;;;;;;;;;;;3.88;100.00;96866.34;4964309;28;20029;-88
2020/12/03 10:36:27;;;;;;;;;;;;;;;3.80;100.00;96857.47;4961891;28;19934;-84
2020/12/03 10:39:03;;;;;;;;;;;;;;;3.94;100.00;96856.34;4956193;28;19930;-86
2020/12/03 10:41:38;;;;;;;;;;;;;;;3.89;100.00;96846.59;4972732;28;19947;-85
2020/12/03 10:44:15;;;;;;;;;;;;;;;3.51;100.00;96820.69;5031748;28;20747;-84
2020/12/03 10:46:46;;;;;;;;;;;;;;;3.27;100.00;96811.00;5058717;28;19925;-84
2020/12/03 10:49:19;;;;;;;;;;;;;;;3.49;100.00;96821.13;5055551;28;20001;-87
2020/12/03 10:51:47;;;;;;;;;;;;;;;3.41;100.00;96814.19;5089356;28;19928;-85
2020/12/03 10:54:18;;;;;;;;;;;;;;;3.26;100.00;96790.91;5071639;28;19959;-78
2020/12/03 10:56:50;;;;;;;;;;;;;;;3.18;100.00;96783.22;5091592;28;19939;-74
2020/12/03 10:59:30;;;;;;;;;;;;;;;3.15;100.00;96767.53;5055848;28;20625;-76
2020/12/03 11:02:03;;;;;;;;;;;;;;;3.08;100.00;96762.16;5088106;28;20034;-76
2020/12/03 11:04:50;;;;;;;;;;;;;;;3.06;100.00;96753.56;5113208;28;19923;-79
2020/12/03 11:07:17;;;;;;;;;;;;;;;3.17;100.00;96748.53;5095865;28;19927;-78
2020/12/03 11:09:49;;;;;;;;;;;;;;;3.05;100.00;96740.94;5077882;28;20002;-86
2020/12/03 11:12:15;;;;;;;;;;;;;;;3.16;100.00;96736.75;5096025;28;20302;-84
2020/12/03 11:14:43;;;;;;;;;;;;;;;3.29;100.00;96734.06;5059807;28;19930;-81
2020/12/03 11:17:34;;;;;;;;;;;;;;;3.22;100.00;96725.97;5095686;28;20394;-86
2020/12/03 11:20:22;;;;;;;;;;;;;;;3.18;100.00;96712.25;5070851;28;19924;-78
2020/12/03 11:23:01;;;;;;;;;;;;;;;3.21;100.00;96711.38;5087811;28;19924;-76
2020/12/03 11:25:29;;;;;;;;;;;;;;;3.12;100.00;96697.41;5076271;28;19962;-77
2020/12/03 11:28:00;;;;;;;;;;;;;;;3.16;100.00;96702.84;5108387;28;20593;-76
2020/12/03 11:30:31;;;;;;;;;;;;;;;3.14;100.00;96683.19;5111613;28;19955;-76
2020/12/03 11:32:59;;;;;;;;;;;;;;;3.30;100.00;96686.72;5089406;28;20453;-77
2020/12/03 11:35:34;;;;;;;;;;;;;;;3.30;100.00;96672.91;5093324;28;19927;-76
2020/12/03 11:38:03;;;;;;;;;;;;;;;3.29;100.00;96673.34;5089914;28;19981;-77
2020/12/03 11:40:41;;;;;;;;;;;;;;;3.04;100.00;96656.66;5111536;28;19928;-76
2020/12/03 11:51:04;;;;;;;;;;;;;;;3.01;100.00;96627.97;5095528;28;19963;-80
2020/12/03 11:53:31;;;;;;;;;;;;;;;3.11;100.00;96628.88;5095096;28;19939;-81
2020/12/03 11:55:58;;;;;;;;;;;;;;;3.24;100.00;96621.47;5113242;28;19923;-81
2020/12/03 11:58:29;;;;;;;;;;;;;;;3.25;100.00;96617.47;5095853;28;20387;-81
2020/12/03 12:01:09;;;;;;;;;;;;;;;3.01;100.00;96602.34;5113351;28;19980;-81
2020/12/03 12:03:38;;;;;;;;;;;;;;;3.17;100.00;96594.81;5092790;28;20338;-78
2020/12/03 12:06:46;;;;;;;;;;;;;;;3.14;100.00;96595.69;5083393;28;19928;-74
2020/12/03 12:09:13;;;;;;;;;;;;;;;3.28;100.00;96591.78;5107705;28;19928;-76
2020/12/03 12:12:05;;;;;;;;;;;;;;;3.41;100.00;96581.56;5073938;28;19927;-79
2020/12/03 12:14:31;;;;;;;;;;;;;;;3.39;100.00;96573.72;5112360;28;19924;-78
2020/12/03 12:16:58;;;;;;;;;;;;;;;3.28;100.00;96567.72;5112138;28;19973;-76
2020/12/03 12:19:26;;;;;;;;;;;;;;;3.29;100.00;96565.72;5111437;28;19931;-77
2020/12/03 12:21:54;;;;;;;;;;;;;;;3.31;100.00;96560.56;5092779;28;19954;-78
2020/12/03 12:24:20;;;;;;;;;;;;;;;3.31;100.00;96564.09;5111737;28;19924;-77
2020/12/03 12:26:48;;;;;;;;;;;;;;;3.38;100.00;96550.09;5094040;28;19924;-77
2020/12/03 12:29:15;;;;;;;;;;;;;;;3.26;100.00;96544.53;5093077;28;20022;-78
2020/12/03 12:31:42;;;;;;;;;;;;;;;3.07;100.00;96535.19;5093155;28;19927;-84
2020/12/03 12:34:11;;;;;;;;;;;;;;;3.13;100.00;96529.91;5093938;28;20481;-79
2020/12/03 12:36:37;;;;;;;;;;;;;;;3.33;100.00;96536.06;5111016;28;20313;-76
2020/12/03 12:39:03;;;;;;;;;;;;;;;3.40;100.00;96524.81;5099993;28;20342;-76
2020/12/03 12:41:30;;;;;;;;;;;;;;;3.36;100.00;96524.91;5072181;28;19954;-76
2020/12/03 12:43:57;;;;;;;;;;;;;;;3.40;100.00;96514.56;5101546;28;19977;-76
2020/12/03 12:46:25;;;;;;;;;;;;;;;3.24;100.00;96505.56;5114733;28;20387;-84
2020/12/03 12:48:52;;;;;;;;;;;;;;;3.27;100.00;96499.19;5080262;28;20378;-85
2020/12/03 12:51:18;;;;;;;;;;;;;;;3.37;100.00;96498.09;5096952;28;19973;-83
2020/12/03 12:53:45;;;;;;;;;;;;;;;3.27;100.00;96491.66;5097423;28;19924;-82
2020/12/03 12:56:12;;;;;;;;;;;;;;;3.19;100.00;96492.31;5080382;28;20298;-82
2020/12/03 12:59:00;;;;;;;;;;;;;;;3.19;100.00;96472.97;5080930;28;20279;-82
2020/12/03 13:01:27;;;;;;;;;;;;;;;3.19;100.00;96464.72;5080462;28;19923;-82
2020/12/03 13:03:54;;;;;;;;;;;;;;;3.15;100.00;96459.28;5063920;28;20286;-81
2020/12/03 13:06:21;;;;;;;;;;;;;;;3.17;100.00;96453.31;5097035;28;20302;-84
2020/12/03 13:08:53;;;;;;;;;;;;;;;3.19;100.00;96451.69;5063973;28;19928;-82
2020/12/03 13:11:20;;;;;;;;;;;;;;;3.27;100.00;96449.50;5046818;28;19934;-83
2020/12/03 13:13:47;;;;;;;;;;;;;;;3.09;100.00;96438.22;5063647;28;20264;-84
2020/12/03 13:16:14;;;;;;;;;;;;;;;2.98;100.00;96421.19;5079799;28;19930;-82
2020/12/03 13:18:40;;;;;;;;;;;;;;;2.89;100.00;96423.78;5079850;28;20447;-81